createdAt,value
2023-03-07T00:03:34.682Z,97608.23
2023-03-07T00:08:39.403Z,97611.16
2023-03-07T00:13:47.545Z,97608.59
2023-03-07T00:18:50.103Z,97602.21
2023-03-07T00:23:53.104Z,97599.23
2023-03-07T00:28:55.801Z,97599.40
2023-03-07T00:33:57.507Z,97593.08
2023-03-07T00:38:59.335Z,97591.56
2023-03-07T00:44:02.573Z,97593.12
2023-03-07T00:49:05.953Z,97594.63
2023-03-07T00:54:27.658Z,97592.39
2023-03-07T00:59:29.413Z,97578.95
2023-03-07T01:04:31.326Z,97572.73
2023-03-07T01:09:32.975Z,97571.86
2023-03-07T01:14:34.801Z,97568.80
2023-03-07T01:19:36.544Z,97564.51
2023-03-07T01:24:39.372Z,97562.41
2023-03-07T01:29:41.206Z,97556.28
2023-03-07T01:34:43.265Z,97554.64
2023-03-07T01:39:45.652Z,97552.59
2023-03-07T01:45:35.956Z,97552.63
2023-03-07T01:50:39.620Z,97546.78
2023-03-07T01:55:41.363Z,97542.58
2023-03-07T02:00:50.184Z,97538.42
2023-03-07T02:06:05.277Z,97533.46
2023-03-07T02:11:07.976Z,97529.98
2023-03-07T02:16:10.026Z,97526.36
2023-03-07T02:21:17.986Z,97519.16
2023-03-07T02:26:29.361Z,97517.20
2023-03-07T02:31:31.490Z,97514.02
2023-03-07T02:36:35.977Z,97515.00
2023-03-07T02:41:50.034Z,97516.16
2023-03-07T02:46:58.740Z,97516.92
2023-03-07T02:52:01.893Z,97513.79
2023-03-07T02:57:04.612Z,97512.33
2023-03-07T03:02:06.711Z,97512.60
2023-03-07T03:07:08.583Z,97512.61
2023-03-07T03:12:10.547Z,97515.73
2023-03-07T03:17:12.439Z,97517.09
2023-03-07T03:22:14.218Z,97513.98
2023-03-07T03:27:18.896Z,97518.10
2023-03-07T03:32:22.391Z,97519.41
2023-03-07T03:37:24.548Z,97516.77
2023-03-07T03:42:26.485Z,97518.00
2023-03-07T03:47:28.198Z,97517.45
2023-03-07T03:52:30.557Z,97520.32
2023-03-07T03:57:32.439Z,97520.75
2023-03-07T04:02:34.288Z,97523.75
2023-03-07T04:07:36.976Z,97526.77
2023-03-07T04:12:38.943Z,97526.77
2023-03-07T04:17:40.802Z,97531.39
2023-03-07T04:22:42.632Z,97525.90
2023-03-07T04:27:45.742Z,97523.48
2023-03-07T04:32:47.754Z,97523.55
2023-03-07T04:37:50.632Z,97520.04
2023-03-07T04:42:52.557Z,97520.52
2023-03-07T04:47:54.543Z,97517.41
2023-03-07T04:52:56.259Z,97511.79
2023-03-07T04:57:58.392Z,97513.30
2023-03-07T05:03:02.203Z,97511.94
2023-03-07T05:08:05.781Z,97508.73
2023-03-07T05:13:07.856Z,97504.08
2023-03-07T05:18:09.649Z,97504.04
2023-03-07T05:23:11.513Z,97502.23
2023-03-07T05:28:14.388Z,97505.43
2023-03-07T05:33:16.174Z,97505.13
2023-03-07T05:38:18.284Z,97502.80
2023-03-07T05:43:20.036Z,97495.65
2023-03-07T05:48:22.116Z,97496.63
2023-03-07T05:53:24.093Z,97498.29
2023-03-07T05:58:26.341Z,97499.52
2023-03-07T06:03:28.472Z,97497.05
2023-03-07T06:08:30.395Z,97495.89
2023-03-07T06:13:32.565Z,97492.27
2023-03-07T06:18:34.298Z,97488.39
2023-03-07T06:23:37.192Z,97482.84
2023-03-07T06:28:43.068Z,97480.53
2023-03-07T06:33:45.893Z,97484.41
2023-03-07T06:38:48.195Z,97488.23
2023-03-07T06:43:53.754Z,97483.83
2023-03-07T06:48:59.988Z,97479.17
2023-03-07T06:54:02.048Z,97472.89
2023-03-07T06:59:04.627Z,97473.27
2023-03-07T07:04:06.519Z,97466.98
2023-03-07T07:09:08.441Z,97466.10
2023-03-07T07:14:12.484Z,97469.71
2023-03-07T07:19:14.761Z,97470.63
2023-03-07T07:24:16.736Z,97473.77
2023-03-07T07:29:18.590Z,97474.15
2023-03-07T07:34:20.863Z,97470.55
2023-03-07T07:39:24.515Z,97471.18
2023-03-07T07:44:31.106Z,97455.53
2023-03-07T07:49:34.597Z,97451.36
2023-03-07T07:54:36.783Z,97453.83
2023-03-07T07:59:38.590Z,97442.04
2023-03-07T08:04:41.709Z,97439.06
2023-03-07T08:09:43.852Z,97435.27
2023-03-07T08:14:45.553Z,97428.23
2023-03-07T08:19:47.210Z,97428.63
2023-03-07T08:24:50.893Z,97422.52
2023-03-07T08:29:52.598Z,97421.29
2023-03-07T08:34:54.284Z,97423.30
2023-03-07T08:39:56.107Z,97421.45
2023-03-07T08:44:57.858Z,97420.44
2023-03-07T08:49:59.566Z,97419.55
2023-03-07T08:55:01.288Z,97423.77
2023-03-07T09:00:05.260Z,97415.33
2023-03-07T09:05:07.350Z,97412.35
2023-03-07T09:10:11.610Z,97412.23
2023-03-07T09:15:13.439Z,97410.64
2023-03-07T09:20:18.757Z,97407.61
2023-03-07T09:25:20.944Z,97401.88
2023-03-07T09:30:23.277Z,97399.52
2023-03-07T09:35:25.065Z,97391.06
2023-03-07T09:40:28.030Z,97389.95
2023-03-07T09:45:29.829Z,97379.48
2023-03-07T09:50:58.437Z,97367.07
2023-03-07T09:56:04.579Z,97367.08
2023-03-07T10:01:11.077Z,97366.90
2023-03-07T10:06:30.651Z,97362.63
2023-03-07T10:11:58.150Z,97352.50
2023-03-07T10:17:08.720Z,97352.02
2023-03-07T10:22:19.534Z,97342.93
2023-03-07T10:27:26.976Z,97342.48
2023-03-07T10:32:34.473Z,97333.72
2023-03-07T10:37:48.343Z,97338.02
2023-03-07T10:42:50.411Z,97342.59
2023-03-07T10:47:52.096Z,97337.09
2023-03-07T10:53:05.513Z,97328.05
2023-03-07T10:58:25.352Z,97321.26
2023-03-07T11:03:46.101Z,97319.95
2023-03-07T11:08:53.739Z,97311.94
2023-03-07T11:14:06.503Z,97315.15
2023-03-07T11:19:30.193Z,97307.49
2023-03-07T11:24:39.057Z,97305.25
2023-03-07T11:29:41.110Z,97305.41
2023-03-07T11:34:49.121Z,97304.00
2023-03-07T11:40:08.466Z,97286.22
2023-03-07T11:45:47.480Z,97288.49
2023-03-07T11:50:55.070Z,97288.36
2023-03-07T11:56:32.433Z,97276.77
2023-03-07T12:01:55.441Z,97269.45
2023-03-07T12:07:14.030Z,97273.61
2023-03-07T12:12:24.612Z,97264.45
2023-03-07T12:17:26.492Z,97268.65
2023-03-07T12:22:34.627Z,97258.84
2023-03-07T12:27:54.378Z,97246.45
2023-03-07T12:32:56.882Z,97249.99
2023-03-07T12:38:16.244Z,97244.52
2023-03-07T12:43:39.683Z,97242.90
2023-03-07T12:49:00.705Z,97233.13
2023-03-07T12:54:14.711Z,97234.10
2023-03-07T12:59:17.354Z,97227.91
2023-03-07T13:04:34.276Z,97225.11
2023-03-07T13:09:40.209Z,97220.77
2023-03-07T13:14:47.196Z,97216.44
2023-03-07T13:19:54.243Z,97220.66
2023-03-07T13:24:58.648Z,97218.05
2023-03-07T13:30:06.395Z,97225.73
2023-03-07T13:35:09.821Z,97218.45
2023-03-07T13:40:39.743Z,97212.61
2023-03-07T13:46:01.811Z,97216.16
2023-03-07T13:51:08.066Z,97212.93
2023-03-07T13:56:16.745Z,97202.54
2023-03-07T14:01:20.508Z,97195.39
2023-03-07T14:06:37.282Z,97189.02
2023-03-07T14:12:00.351Z,97172.55
2023-03-07T14:17:33.902Z,97160.10
2023-03-07T14:22:50.215Z,97160.21
2023-03-07T14:27:59.184Z,97162.92
2023-03-07T14:33:01.626Z,97158.70
2023-03-07T14:38:08.046Z,97150.77
2023-03-07T14:43:28.036Z,97144.49
2023-03-07T14:49:07.493Z,97143.98
2023-03-07T14:54:17.246Z,97140.33
2023-03-07T14:59:28.022Z,97136.33
2023-03-07T15:04:32.979Z,97138.11
2023-03-07T15:09:35.314Z,97131.48
2023-03-07T15:14:49.453Z,97137.66
2023-03-07T15:20:02.358Z,97132.29
2023-03-07T15:25:04.360Z,97119.75
2023-03-07T15:30:29.097Z,97111.34
2023-03-07T15:35:31.381Z,97102.02
2023-03-07T15:40:35.353Z,97100.13
2023-03-07T15:45:40.030Z,97097.17
2023-03-07T15:50:42.030Z,97101.94
2023-03-07T15:55:54.380Z,97099.60
2023-03-07T16:01:21.146Z,97101.59
2023-03-07T16:06:37.986Z,97096.08
2023-03-07T16:11:43.452Z,97095.39
2023-03-07T16:16:45.241Z,97094.48
2023-03-07T16:21:47.213Z,97091.46
2023-03-07T16:26:49.364Z,97088.91
2023-03-07T16:31:51.310Z,97082.55
2023-03-07T16:36:53.027Z,97083.42
2023-03-07T16:41:54.776Z,97079.38
2023-03-07T16:47:04.281Z,97077.05
2023-03-07T16:52:06.924Z,97079.54
2023-03-07T16:57:15.237Z,97086.80
2023-03-07T17:02:20.606Z,97090.58
2023-03-07T17:07:23.444Z,97092.40
2023-03-07T17:12:25.166Z,97092.47
2023-03-07T17:17:33.348Z,97095.84
2023-03-07T17:22:35.456Z,97093.38
2023-03-07T17:27:41.742Z,97096.63
2023-03-07T17:32:43.496Z,97094.30
2023-03-07T17:37:45.643Z,97096.88
2023-03-07T17:42:50.658Z,97098.90
2023-03-07T17:47:54.347Z,97096.69
2023-03-07T17:52:56.375Z,97090.43
2023-03-07T17:57:58.807Z,97086.27
2023-03-07T18:03:00.476Z,97084.42
2023-03-07T18:08:02.286Z,97088.98
2023-03-07T18:13:04.037Z,97092.35
2023-03-07T18:18:06.937Z,97092.14
2023-03-07T18:23:08.695Z,97098.05
2023-03-07T18:28:10.365Z,97102.92
2023-03-07T18:33:12.034Z,97102.94
2023-03-07T18:38:13.770Z,97097.29
2023-03-07T18:43:15.643Z,97103.70
2023-03-07T18:48:17.393Z,97105.44
2023-03-07T18:53:19.129Z,97100.23
2023-03-07T18:58:21.300Z,97100.19
2023-03-07T19:03:23.518Z,97106.34
2023-03-07T19:08:25.203Z,97106.00
2023-03-07T19:13:27.088Z,97103.98
2023-03-07T19:18:28.915Z,97106.51
2023-03-07T19:23:30.666Z,97107.44
2023-03-07T19:28:33.654Z,97111.27
2023-03-07T19:33:36.416Z,97102.77
2023-03-07T19:38:38.641Z,97105.36
2023-03-07T19:43:40.862Z,97094.77
2023-03-07T19:48:44.184Z,97084.20
2023-03-07T19:53:47.020Z,97081.73
2023-03-07T19:58:50.766Z,97077.41
2023-03-07T20:03:53.923Z,97079.04
2023-03-07T20:08:56.929Z,97075.96
2023-03-07T20:14:01.239Z,97070.49
2023-03-07T20:19:06.971Z,97076.04
2023-03-07T20:24:09.182Z,97079.71
2023-03-07T20:29:11.640Z,97079.54
2023-03-07T20:34:13.341Z,97074.59
2023-03-07T20:39:15.115Z,97063.20
2023-03-07T20:44:16.993Z,97057.98
2023-03-07T20:49:18.686Z,97059.38
2023-03-07T20:54:20.663Z,97059.88
2023-03-07T20:59:22.374Z,97052.85
2023-03-07T21:04:24.299Z,97052.50
2023-03-07T21:09:26.076Z,97054.95
2023-03-07T21:14:27.753Z,97049.42
2023-03-07T21:19:29.417Z,97056.97
2023-03-07T21:24:31.237Z,97057.80
2023-03-07T21:29:33.059Z,97055.67
2023-03-07T21:34:34.784Z,97055.88
2023-03-07T21:39:36.406Z,97061.89
2023-03-07T21:44:38.107Z,97057.70
2023-03-07T21:49:39.833Z,97049.75
2023-03-07T21:54:41.614Z,97045.59
2023-03-07T21:59:43.345Z,97043.18
2023-03-07T22:04:45.039Z,97048.34
2023-03-07T22:09:47.345Z,97048.81
2023-03-07T22:14:53.711Z,97065.14
2023-03-07T22:19:55.493Z,97060.19
2023-03-07T22:24:57.160Z,97068.54
2023-03-07T22:29:58.963Z,97069.23
2023-03-07T22:35:01.088Z,97066.56
2023-03-07T22:40:03.387Z,97073.57
2023-03-07T22:45:18.887Z,97081.11
2023-03-07T22:50:23.767Z,97086.60
2023-03-07T22:55:28.536Z,97091.70
2023-03-07T23:00:30.226Z,97089.89
2023-03-07T23:05:32.937Z,97096.52
2023-03-07T23:10:34.806Z,97099.14
2023-03-07T23:15:40.366Z,97101.20
2023-03-07T23:20:42.020Z,97095.11
2023-03-07T23:25:43.694Z,97089.35
2023-03-07T23:30:45.388Z,97095.22
2023-03-07T23:35:47.824Z,97092.96
2023-03-07T23:40:49.496Z,97091.63
2023-03-07T23:45:51.232Z,97091.90
2023-03-07T23:50:52.945Z,97092.98
2023-03-07T23:55:54.631Z,97094.45
